83VA weather

Medical Heliport
Williamsburg, Virginia, United States

Public forecast

Using degrees Fahrenheit for public forecast. Weather courtesy of forecast.io.

METAR (pilot weather report)

Closest report is Williamsburg Jamestown Airport, 2.5 nm (4.6 km) S. Retrieved 2019/06/18 18:35 UTC (0 seconds ago):

KJGG 181835Z AUTO 24005G14KT 10SM CLR 33/23 A2994 RMK AO1

TAF (pilot weather forecast)

Closest forecast is Felker Army Air Field, 10.4 nm (19.3 km) SSE. Retrieved 2019/06/18 18:15 UTC (15 minutes ago):

TAF KFAF 181800Z 1818/1924 23010G15KT 9999 FEW090 SCT180 QNH2994INS TEMPO 1820/1823 22015G20KT 4800 -TSRA BKN040CB BECMG 1901/1902 19012KT 9999 FEW020 BKN070 QNH2987INS BECMG 1911/1912 19012KT 8000 -SHRA FEW015 BKN050 QNH2985INS BECMG 1917/1918 20010G15KT 6000 -SHRA FEW010 BKN030 QNH2982INS TEMPO 1919/1924 21012G18KT 3200 -TSRA BKN030CB TX31/1820Z TN23/1909Z LAST NO AMDS AFT 1903 NEXT 1910